createdAt,value
2017-10-26T00:00:13.098Z,48.17
2017-10-26T00:02:39.613Z,44.27
2017-10-26T00:05:06.070Z,47.53
2017-10-26T00:07:33.221Z,43.50
2017-10-26T00:09:59.658Z,47.70
2017-10-26T00:12:26.091Z,51.03
2017-10-26T00:14:52.533Z,46.50
2017-10-26T00:17:18.962Z,46.13
2017-10-26T00:19:45.393Z,51.63
2017-10-26T00:22:11.837Z,59.87
2017-10-26T00:24:38.879Z,53.53
2017-10-26T00:27:05.313Z,51.47
2017-10-26T00:29:31.748Z,46.23
2017-10-26T00:31:58.182Z,47.97
2017-10-26T00:34:24.617Z,56.43
2017-10-26T00:36:51.060Z,44.53
2017-10-26T00:39:17.589Z,51.67
2017-10-26T00:41:44.638Z,48.47
2017-10-26T00:44:11.073Z,46.63
2017-10-26T00:46:37.508Z,49.87
2017-10-26T00:49:03.941Z,44.47
2017-10-26T00:51:30.377Z,50.00
2017-10-26T00:53:56.812Z,51.87
2017-10-26T00:56:23.247Z,48.30
2017-10-26T00:58:50.381Z,52.07
2017-10-26T01:01:16.832Z,46.43
2017-10-26T01:03:43.370Z,45.20
2017-10-26T01:06:09.813Z,46.43
2017-10-26T01:08:36.176Z,57.70
2017-10-26T01:11:02.571Z,43.63
2017-10-26T01:13:29.015Z,49.63
2017-10-26T01:15:56.160Z,46.13
2017-10-26T01:18:22.592Z,55.93
2017-10-26T01:20:49.011Z,58.20
2017-10-26T01:23:15.461Z,51.17
2017-10-26T01:25:41.904Z,47.87
2017-10-26T01:28:08.332Z,47.50
2017-10-26T01:30:34.765Z,51.57
2017-10-26T01:33:01.896Z,46.80
2017-10-26T01:35:28.352Z,46.00
2017-10-26T01:37:54.795Z,41.77
2017-10-26T01:40:21.332Z,41.97
2017-10-26T01:42:47.768Z,45.27
2017-10-26T01:45:14.182Z,44.70
2017-10-26T01:47:40.629Z,45.37
2017-10-26T01:50:07.780Z,44.00
2017-10-26T01:52:34.189Z,48.73
2017-10-26T01:55:00.653Z,39.77
2017-10-26T01:57:27.084Z,40.57
2017-10-26T01:59:53.519Z,41.37
2017-10-26T02:02:19.954Z,55.03
2017-10-26T02:04:46.396Z,42.17
2017-10-26T02:07:13.641Z,44.20
2017-10-26T02:09:40.085Z,45.40
2017-10-26T02:12:06.470Z,44.50
2017-10-26T02:14:32.937Z,51.30
2017-10-26T02:16:59.381Z,47.10
2017-10-26T02:19:25.917Z,47.57
2017-10-26T02:21:52.360Z,45.63
2017-10-26T02:24:19.620Z,46.03
2017-10-26T02:26:46.041Z,50.17
2017-10-26T02:29:12.476Z,98.27
2017-10-26T02:31:38.915Z,50.20
2017-10-26T02:34:05.346Z,75.53
2017-10-26T02:36:31.780Z,108.07
2017-10-26T02:38:58.152Z,103.50
2017-10-26T02:41:25.382Z,78.93
2017-10-26T02:43:51.801Z,116.07
2017-10-26T02:46:18.244Z,72.83
2017-10-26T02:48:44.679Z,95.70
2017-10-26T02:51:11.106Z,82.93
2017-10-26T02:53:37.543Z,48.97
2017-10-26T02:56:03.974Z,45.57
2017-10-26T02:58:31.063Z,61.70
2017-10-26T03:00:57.569Z,55.93
2017-10-26T03:03:24.003Z,59.10
2017-10-26T03:05:50.429Z,46.30
2017-10-26T03:08:16.864Z,59.23
2017-10-26T03:10:43.310Z,51.63
2017-10-26T03:13:09.731Z,53.50
2017-10-26T03:15:36.886Z,42.73
2017-10-26T03:18:03.323Z,55.00
2017-10-26T03:20:29.755Z,55.90
2017-10-26T03:22:56.194Z,47.43
2017-10-26T03:25:22.608Z,48.67
2017-10-26T03:27:49.059Z,44.77
2017-10-26T03:30:15.498Z,43.10
2017-10-26T03:32:42.655Z,51.10
2017-10-26T03:35:09.081Z,45.97
2017-10-26T03:37:35.556Z,42.33
2017-10-26T03:40:01.911Z,77.53
2017-10-26T03:42:28.384Z,208.60
2017-10-26T03:44:54.828Z,218.13
2017-10-26T03:47:21.359Z,271.23
2017-10-26T03:49:48.508Z,134.23
2017-10-26T03:52:14.841Z,159.10
2017-10-26T03:54:41.283Z,235.40
2017-10-26T03:57:07.709Z,90.83
2017-10-26T03:59:34.096Z,348.20
2017-10-26T04:02:00.565Z,142.43
2017-10-26T04:04:27.014Z,130.30
2017-10-26T04:06:54.167Z,243.37
2017-10-26T04:09:20.609Z,135.37
2017-10-26T04:11:47.044Z,119.87
2017-10-26T04:14:13.699Z,166.50
2017-10-26T04:16:40.111Z,145.63
2017-10-26T04:19:06.553Z,169.83
2017-10-26T04:21:32.978Z,129.70
2017-10-26T04:24:00.141Z,89.27
2017-10-26T04:26:26.539Z,79.03
2017-10-26T04:28:52.977Z,60.57
2017-10-26T04:31:19.421Z,49.20
2017-10-26T04:33:45.877Z,65.50
2017-10-26T04:36:12.312Z,57.77
2017-10-26T04:38:38.738Z,59.37
2017-10-26T04:41:05.174Z,48.60
2017-10-26T04:43:31.608Z,46.43
2017-10-26T04:45:58.042Z,42.27
2017-10-26T04:48:24.478Z,62.47
2017-10-26T04:50:50.920Z,61.13
2017-10-26T04:53:17.356Z,120.07
2017-10-26T04:55:43.797Z,133.37
2017-10-26T04:58:10.159Z,101.10
2017-10-26T05:00:36.659Z,134.03
2017-10-26T05:03:03.094Z,75.10
2017-10-26T05:05:29.716Z,58.37
2017-10-26T05:07:56.161Z,68.70
2017-10-26T05:10:22.615Z,96.00
2017-10-26T05:12:49.140Z,95.90
2017-10-26T05:15:15.570Z,120.20
2017-10-26T05:17:42.145Z,96.83
2017-10-26T05:20:08.538Z,71.53
2017-10-26T05:22:35.279Z,66.30
2017-10-26T05:25:01.715Z,66.73
2017-10-26T05:27:28.157Z,66.63
2017-10-26T05:29:54.596Z,75.57
2017-10-26T05:32:21.847Z,100.47
2017-10-26T05:34:48.272Z,67.27
2017-10-26T05:37:14.820Z,65.93
2017-10-26T05:39:41.956Z,74.57
2017-10-26T05:42:08.398Z,74.93
2017-10-26T05:44:35.254Z,62.47
2017-10-26T05:47:01.801Z,105.47
2017-10-26T05:49:28.244Z,69.80
2017-10-26T05:51:54.669Z,76.43
2017-10-26T05:54:21.110Z,90.67
2017-10-26T05:56:47.548Z,62.60
2017-10-26T05:59:13.974Z,77.53
2017-10-26T06:01:40.417Z,69.83
2017-10-26T06:04:06.773Z,82.17
2017-10-26T06:06:33.176Z,55.13
2017-10-26T06:08:59.613Z,56.80
2017-10-26T06:11:26.260Z,58.70
2017-10-26T06:13:52.685Z,66.80
2017-10-26T06:16:19.129Z,59.90
2017-10-26T06:18:45.452Z,68.27
2017-10-26T06:21:12.200Z,64.50
2017-10-26T06:23:39.148Z,61.27
2017-10-26T06:26:05.575Z,53.47
2017-10-26T06:28:32.016Z,62.60
2017-10-26T06:30:58.555Z,68.47
2017-10-26T06:33:24.991Z,59.73
2017-10-26T06:35:51.420Z,65.50
2017-10-26T06:38:17.853Z,67.63
2017-10-26T06:40:44.287Z,68.43
2017-10-26T06:43:10.732Z,56.50
2017-10-26T06:45:38.163Z,50.47
2017-10-26T06:48:04.608Z,51.80
2017-10-26T06:50:31.536Z,54.73
2017-10-26T06:52:57.998Z,54.33
2017-10-26T06:55:24.565Z,51.40
2017-10-26T06:57:51.111Z,45.73
2017-10-26T07:00:17.822Z,40.73
2017-10-26T07:02:44.460Z,37.40
2017-10-26T07:05:10.994Z,47.33
2017-10-26T07:07:37.423Z,41.60
2017-10-26T07:10:03.856Z,39.77
2017-10-26T07:12:30.293Z,38.17
2017-10-26T07:14:56.746Z,38.00
2017-10-26T07:17:23.160Z,33.53
2017-10-26T07:19:49.679Z,38.90
2017-10-26T07:22:16.122Z,34.70
2017-10-26T07:24:42.572Z,40.07
2017-10-26T07:27:09.412Z,41.77
2017-10-26T07:29:35.848Z,33.50
2017-10-26T07:32:02.494Z,39.33
2017-10-26T07:34:28.929Z,34.43
2017-10-26T07:36:55.355Z,45.80
2017-10-26T07:39:21.892Z,38.27
2017-10-26T07:41:48.328Z,37.13
2017-10-26T07:44:14.763Z,35.30
2017-10-26T07:46:41.197Z,51.10
2017-10-26T07:49:07.736Z,35.20
2017-10-26T07:51:34.169Z,40.73
2017-10-26T07:54:01.395Z,41.90
2017-10-26T07:56:27.864Z,34.77
2017-10-26T07:58:54.405Z,33.03
2017-10-26T08:01:20.797Z,47.87
2017-10-26T08:03:47.264Z,49.40
2017-10-26T08:06:13.698Z,42.53
2017-10-26T08:08:40.243Z,50.33
2017-10-26T08:11:07.284Z,49.53
2017-10-26T08:13:34.781Z,40.90
2017-10-26T08:16:01.178Z,44.93
2017-10-26T08:18:27.927Z,41.60
2017-10-26T08:20:54.312Z,43.73
2017-10-26T08:23:20.788Z,47.23
2017-10-26T08:25:47.234Z,21.13
2017-10-26T08:28:13.659Z,24.93
2017-10-26T08:30:40.090Z,21.97
2017-10-26T08:33:06.551Z,23.87
2017-10-26T08:35:32.966Z,14.40
2017-10-26T08:37:59.428Z,19.67
2017-10-26T08:40:26.661Z,12.90
2017-10-26T08:42:53.067Z,14.10
2017-10-26T08:45:19.539Z,13.53
2017-10-26T08:47:45.955Z,12.80
2017-10-26T08:50:12.501Z,11.90
2017-10-26T08:52:38.936Z,11.93
2017-10-26T08:55:05.362Z,12.40
2017-10-26T08:57:31.797Z,12.43
2017-10-26T08:59:58.777Z,13.10
2017-10-26T09:02:25.186Z,12.70
2017-10-26T09:04:51.920Z,11.30
2017-10-26T09:07:18.355Z,11.43
2017-10-26T09:09:44.858Z,10.27
2017-10-26T09:12:11.175Z,11.23
2017-10-26T09:14:37.865Z,11.67
2017-10-26T09:17:04.299Z,11.40
2017-10-26T09:19:30.767Z,12.87
2017-10-26T09:21:57.168Z,12.23
2017-10-26T09:24:23.499Z,12.63
2017-10-26T09:26:50.036Z,13.80
2017-10-26T09:29:16.573Z,13.53
2017-10-26T09:31:43.118Z,11.23
2017-10-26T09:34:09.638Z,17.80
2017-10-26T09:36:37.010Z,12.50
2017-10-26T09:39:03.647Z,12.23
2017-10-26T09:41:30.181Z,23.93
2017-10-26T09:43:56.622Z,15.60
2017-10-26T09:46:23.030Z,16.90
2017-10-26T09:48:49.486Z,11.27
2017-10-26T09:51:15.887Z,13.13
2017-10-26T09:53:42.354Z,12.10
2017-10-26T09:56:08.852Z,13.13
2017-10-26T09:58:35.707Z,16.00
2017-10-26T10:01:02.148Z,12.77
2017-10-26T10:03:29.330Z,13.10
2017-10-26T10:05:59.337Z,15.57
2017-10-26T10:08:27.626Z,18.77
2017-10-26T10:10:54.159Z,13.03
2017-10-26T10:13:20.599Z,15.40
2017-10-26T10:15:47.240Z,15.40
2017-10-26T10:18:13.698Z,14.33
2017-10-26T10:20:40.345Z,13.83
2017-10-26T10:23:06.740Z,16.17
2017-10-26T10:25:33.281Z,14.33
2017-10-26T10:27:59.711Z,13.87
2017-10-26T10:30:26.131Z,12.10
2017-10-26T10:32:52.592Z,14.10
2017-10-26T10:35:19.127Z,10.30
2017-10-26T10:37:45.964Z,11.60
2017-10-26T10:40:12.499Z,12.97
2017-10-26T10:42:38.974Z,13.80
2017-10-26T10:45:05.372Z,12.33
2017-10-26T10:47:31.803Z,15.60
2017-10-26T10:49:58.451Z,12.17
2017-10-26T10:52:24.886Z,10.70
2017-10-26T10:54:51.415Z,11.80
2017-10-26T10:57:17.824Z,10.23
2017-10-26T10:59:44.696Z,11.23
2017-10-26T11:02:11.140Z,10.90
2017-10-26T11:04:37.460Z,12.30
2017-10-26T11:07:03.909Z,12.93
2017-10-26T11:09:30.330Z,16.73
2017-10-26T11:11:56.774Z,16.80
2017-10-26T11:14:23.208Z,20.13
2017-10-26T11:16:50.461Z,13.40
2017-10-26T11:19:17.101Z,11.80
2017-10-26T11:21:43.594Z,11.17
2017-10-26T11:24:10.279Z,14.60
2017-10-26T11:26:37.121Z,9.93
2017-10-26T11:29:03.659Z,10.60
2017-10-26T11:31:30.119Z,10.30
2017-10-26T11:33:56.516Z,10.40
2017-10-26T11:36:23.377Z,11.50
2017-10-26T11:38:50.321Z,10.90
2017-10-26T11:41:16.757Z,10.13
2017-10-26T11:43:43.263Z,11.20
2017-10-26T11:46:10.302Z,11.50
2017-10-26T11:48:37.793Z,8.90
2017-10-26T11:51:04.338Z,9.17
2017-10-26T11:53:30.932Z,9.30
2017-10-26T11:55:57.411Z,9.83
2017-10-26T11:58:23.925Z,7.37
2017-10-26T12:00:50.898Z,8.60
2017-10-26T12:03:17.321Z,9.57
2017-10-26T12:05:43.763Z,8.80
2017-10-26T12:08:10.497Z,10.00
2017-10-26T12:10:36.940Z,10.60
2017-10-26T12:13:03.367Z,10.20
2017-10-26T12:15:30.101Z,9.10
2017-10-26T12:17:56.544Z,8.87
2017-10-26T12:20:22.980Z,8.40
2017-10-26T12:22:49.395Z,9.40
2017-10-26T12:25:15.883Z,8.97
2017-10-26T12:27:43.056Z,9.07
2017-10-26T12:30:09.544Z,9.10
2017-10-26T12:32:36.995Z,10.10
2017-10-26T12:35:03.957Z,9.60
2017-10-26T12:37:30.549Z,10.03
2017-10-26T12:39:57.325Z,8.20
2017-10-26T12:42:23.765Z,7.90
2017-10-26T12:44:50.193Z,8.07
2017-10-26T12:47:16.733Z,8.57
2017-10-26T12:49:44.638Z,8.30
2017-10-26T12:52:11.111Z,7.70
2017-10-26T12:54:37.852Z,7.30
2017-10-26T12:57:04.415Z,7.40
2017-10-26T12:59:30.952Z,7.67
2017-10-26T13:01:57.592Z,8.27
2017-10-26T13:04:24.035Z,8.73
2017-10-26T13:06:50.702Z,7.80
2017-10-26T13:09:17.772Z,8.43
2017-10-26T13:11:44.514Z,8.33
2017-10-26T13:14:11.051Z,8.47
2017-10-26T13:16:37.817Z,7.77
2017-10-26T13:19:04.348Z,9.33
2017-10-26T13:21:30.900Z,9.70
2017-10-26T13:23:57.412Z,11.70
2017-10-26T13:26:23.849Z,16.93
2017-10-26T13:28:50.274Z,10.40
2017-10-26T13:31:17.225Z,21.33
2017-10-26T13:33:44.475Z,8.80
2017-10-26T13:36:12.036Z,8.63
2017-10-26T13:38:38.479Z,7.03
2017-10-26T13:41:05.147Z,8.63
2017-10-26T13:43:31.553Z,7.90
2017-10-26T13:45:57.979Z,11.00
2017-10-26T13:48:24.619Z,13.60
2017-10-26T13:50:51.122Z,15.10
2017-10-26T13:53:17.592Z,10.80
2017-10-26T13:55:44.038Z,16.73
2017-10-26T13:58:10.469Z,8.80
2017-10-26T14:00:37.009Z,9.47
2017-10-26T14:03:03.434Z,14.80
2017-10-26T14:05:29.765Z,9.90
2017-10-26T14:07:56.215Z,8.00
2017-10-26T14:10:22.565Z,8.43
2017-10-26T14:12:49.104Z,10.93
2017-10-26T14:15:15.473Z,8.70
2017-10-26T14:17:42.044Z,10.33
2017-10-26T14:20:08.791Z,9.00
2017-10-26T14:22:35.432Z,13.57
2017-10-26T14:25:01.971Z,8.30
2017-10-26T14:27:28.812Z,8.80
2017-10-26T14:29:55.452Z,9.23
2017-10-26T14:32:22.191Z,8.40
2017-10-26T14:34:48.828Z,10.50
2017-10-26T14:37:15.370Z,9.23
2017-10-26T14:39:41.812Z,11.77
2017-10-26T14:42:09.460Z,9.00
2017-10-26T14:44:35.797Z,8.00
2017-10-26T14:47:02.227Z,9.43
2017-10-26T14:49:28.670Z,14.20
2017-10-26T14:51:55.211Z,12.90
2017-10-26T14:54:21.635Z,18.13
2017-10-26T14:56:48.173Z,20.37
2017-10-26T14:59:15.017Z,14.43
2017-10-26T15:01:41.562Z,13.20
2017-10-26T15:04:07.988Z,14.53
2017-10-26T15:06:34.434Z,17.77
2017-10-26T15:09:00.805Z,20.23
2017-10-26T15:11:27.257Z,14.80
2017-10-26T15:13:53.636Z,14.80
2017-10-26T15:16:20.174Z,16.27
2017-10-26T15:18:46.812Z,19.70
2017-10-26T15:21:13.245Z,32.20
2017-10-26T15:23:39.649Z,18.33
2017-10-26T15:26:06.004Z,22.07
2017-10-26T15:28:32.458Z,15.10
2017-10-26T15:30:58.847Z,25.47
2017-10-26T15:33:25.315Z,19.50
2017-10-26T15:35:51.750Z,20.83
2017-10-26T15:38:18.115Z,19.70
2017-10-26T15:40:44.620Z,21.03
2017-10-26T15:43:11.048Z,20.47
2017-10-26T15:45:37.480Z,19.33
2017-10-26T15:48:03.915Z,26.80
2017-10-26T15:50:30.453Z,25.03
2017-10-26T15:52:56.939Z,32.13
2017-10-26T15:55:23.424Z,20.37
2017-10-26T15:57:49.860Z,24.50
2017-10-26T16:00:16.294Z,29.33
2017-10-26T16:02:42.737Z,28.23
2017-10-26T16:05:09.880Z,28.60
2017-10-26T16:07:36.314Z,32.07
2017-10-26T16:10:02.757Z,26.20
2017-10-26T16:12:29.184Z,32.07
2017-10-26T16:14:55.619Z,30.83
2017-10-26T16:17:22.053Z,33.13
2017-10-26T16:19:48.488Z,44.03
2017-10-26T16:22:15.538Z,34.20
2017-10-26T16:24:41.982Z,28.80
2017-10-26T16:27:08.532Z,26.70
2017-10-26T16:29:34.950Z,33.20
2017-10-26T16:32:01.385Z,31.93
2017-10-26T16:34:27.697Z,24.00
2017-10-26T16:36:54.081Z,25.53
2017-10-26T16:39:21.400Z,27.80
2017-10-26T16:41:47.749Z,31.43
2017-10-26T16:44:14.174Z,32.53
2017-10-26T16:46:40.598Z,32.13
2017-10-26T16:49:07.037Z,37.97
2017-10-26T16:51:33.471Z,40.47
2017-10-26T16:53:59.913Z,46.37
2017-10-26T16:56:27.159Z,49.83
2017-10-26T16:58:53.602Z,35.73
2017-10-26T17:01:20.048Z,32.53
2017-10-26T17:03:46.463Z,31.87
2017-10-26T17:06:12.906Z,42.23
2017-10-26T17:08:39.333Z,45.13
2017-10-26T17:11:05.877Z,46.90
2017-10-26T17:13:33.021Z,43.70
2017-10-26T17:15:59.391Z,30.13
2017-10-26T17:18:25.789Z,28.40
2017-10-26T17:20:52.251Z,30.27
2017-10-26T17:23:18.656Z,29.07
2017-10-26T17:25:45.067Z,30.40
2017-10-26T17:28:11.509Z,30.30
2017-10-26T17:30:38.576Z,28.27
2017-10-26T17:33:05.014Z,30.20
2017-10-26T17:35:31.445Z,34.60
2017-10-26T17:37:57.911Z,30.40
2017-10-26T17:40:24.315Z,38.00
2017-10-26T17:42:50.757Z,33.80
2017-10-26T17:45:17.196Z,27.00
2017-10-26T17:47:44.344Z,31.03
2017-10-26T17:50:10.780Z,34.93
2017-10-26T17:52:37.208Z,28.87
2017-10-26T17:55:03.743Z,41.13
2017-10-26T17:57:30.180Z,37.80
2017-10-26T17:59:56.621Z,40.13
2017-10-26T18:02:23.052Z,45.97
2017-10-26T18:04:50.198Z,38.20
2017-10-26T18:07:16.642Z,43.77
2017-10-26T18:09:43.076Z,35.17
2017-10-26T18:12:09.503Z,44.33
2017-10-26T18:14:35.877Z,45.53
2017-10-26T18:17:02.372Z,37.73
2017-10-26T18:19:28.807Z,36.80
2017-10-26T18:21:56.070Z,38.13
2017-10-26T18:24:22.504Z,44.97
2017-10-26T18:26:48.929Z,43.67
2017-10-26T18:29:15.364Z,52.13
2017-10-26T18:31:42.006Z,44.63
2017-10-26T18:34:08.447Z,51.97
2017-10-26T18:36:34.846Z,40.73
2017-10-26T18:39:01.295Z,47.03
2017-10-26T18:41:27.744Z,53.00
2017-10-26T18:43:54.248Z,50.57
2017-10-26T18:46:21.338Z,51.43
2017-10-26T18:48:47.773Z,39.10
2017-10-26T18:51:14.218Z,50.40
2017-10-26T18:53:40.639Z,59.50
2017-10-26T18:56:07.040Z,46.70
2017-10-26T18:58:33.438Z,42.83
2017-10-26T19:00:59.950Z,39.83
2017-10-26T19:03:27.098Z,47.13
2017-10-26T19:05:53.533Z,47.00
2017-10-26T19:08:19.959Z,47.53
2017-10-26T19:10:46.394Z,55.27
2017-10-26T19:13:12.848Z,48.80
2017-10-26T19:15:39.373Z,51.50
2017-10-26T19:18:05.808Z,53.67
2017-10-26T19:20:33.130Z,47.07
2017-10-26T19:22:59.599Z,61.80
2017-10-26T19:25:26.026Z,65.10
2017-10-26T19:27:52.460Z,52.93
2017-10-26T19:30:18.896Z,50.73
2017-10-26T19:32:45.272Z,51.33
2017-10-26T19:35:11.773Z,52.90
2017-10-26T19:37:38.924Z,56.43
2017-10-26T19:40:05.352Z,49.30
2017-10-26T19:42:31.727Z,48.53
2017-10-26T19:44:58.231Z,55.27
2017-10-26T19:47:24.591Z,57.03
2017-10-26T19:49:51.060Z,62.57
2017-10-26T19:52:17.423Z,62.90
2017-10-26T19:54:44.676Z,56.20
2017-10-26T19:57:11.153Z,65.17
2017-10-26T19:59:37.648Z,64.40
2017-10-26T20:02:04.052Z,50.37
2017-10-26T20:04:30.519Z,71.20
2017-10-26T20:06:56.962Z,46.67
2017-10-26T20:09:23.387Z,55.83
2017-10-26T20:11:50.650Z,50.73
2017-10-26T20:14:17.048Z,54.90
2017-10-26T20:16:43.522Z,53.60
2017-10-26T20:19:09.949Z,46.20
2017-10-26T20:21:36.323Z,44.40
2017-10-26T20:24:02.823Z,60.10
2017-10-26T20:26:29.260Z,47.57
2017-10-26T20:28:56.401Z,53.13
2017-10-26T20:31:22.844Z,50.73
2017-10-26T20:33:49.279Z,58.70
2017-10-26T20:36:15.816Z,47.87
2017-10-26T20:38:42.244Z,52.43
2017-10-26T20:41:08.677Z,60.17
2017-10-26T20:43:35.080Z,51.63
2017-10-26T20:46:02.160Z,52.60
2017-10-26T20:48:28.596Z,46.13
2017-10-26T20:50:55.051Z,48.50
2017-10-26T20:53:21.465Z,43.70
2017-10-26T20:55:47.899Z,45.73
2017-10-26T20:58:14.335Z,50.50
2017-10-26T21:00:40.708Z,44.30
2017-10-26T21:03:07.929Z,44.13
2017-10-26T21:05:34.355Z,44.43
2017-10-26T21:08:00.799Z,45.03
2017-10-26T21:10:27.226Z,49.17
2017-10-26T21:12:53.668Z,35.97
2017-10-26T21:15:20.094Z,37.17
2017-10-26T21:17:46.528Z,40.00
2017-10-26T21:20:13.685Z,36.33
2017-10-26T21:22:40.123Z,40.20
2017-10-26T21:25:06.550Z,48.27
2017-10-26T21:27:32.984Z,46.90
2017-10-26T21:29:59.418Z,46.70
2017-10-26T21:32:25.823Z,44.10
2017-10-26T21:34:52.308Z,42.03
2017-10-26T21:37:19.449Z,47.43
2017-10-26T21:39:45.875Z,43.20
2017-10-26T21:42:12.421Z,46.90
2017-10-26T21:44:38.815Z,42.17
2017-10-26T21:47:05.291Z,43.23
2017-10-26T21:49:31.725Z,48.43
2017-10-26T21:51:58.259Z,40.17
2017-10-26T21:54:25.304Z,43.47
2017-10-26T21:56:51.746Z,44.03
2017-10-26T21:59:18.283Z,43.03
2017-10-26T22:01:44.624Z,43.50
2017-10-26T22:04:11.150Z,41.57
2017-10-26T22:06:37.587Z,39.70
2017-10-26T22:09:03.911Z,37.53
2017-10-26T22:11:31.174Z,45.30
2017-10-26T22:13:57.599Z,50.13
2017-10-26T22:16:24.028Z,54.17
2017-10-26T22:18:50.470Z,48.70
2017-10-26T22:21:16.912Z,117.50
2017-10-26T22:23:43.347Z,93.20
2017-10-26T22:26:09.773Z,114.20
2017-10-26T22:28:37.037Z,83.87
2017-10-26T22:31:03.461Z,73.27
2017-10-26T22:33:29.911Z,83.50
2017-10-26T22:35:56.434Z,95.17
2017-10-26T22:38:22.869Z,64.37
2017-10-26T22:40:49.304Z,41.47
2017-10-26T22:43:15.738Z,36.00
2017-10-26T22:45:43.003Z,36.07
2017-10-26T22:48:09.427Z,38.13
2017-10-26T22:50:35.861Z,35.83
2017-10-26T22:53:02.296Z,34.73
2017-10-26T22:55:28.627Z,31.63
2017-10-26T22:57:55.027Z,29.13
2017-10-26T23:00:21.506Z,33.10
2017-10-26T23:02:48.649Z,31.90
2017-10-26T23:05:15.056Z,30.20
2017-10-26T23:07:41.528Z,30.83
2017-10-26T23:10:07.954Z,32.67
2017-10-26T23:12:34.490Z,31.50
2017-10-26T23:15:00.935Z,32.07
2017-10-26T23:17:27.359Z,30.53
2017-10-26T23:19:54.600Z,29.07
2017-10-26T23:22:21.019Z,30.87
2017-10-26T23:24:47.497Z,29.50
2017-10-26T23:27:13.928Z,31.60
2017-10-26T23:29:40.324Z,30.87
2017-10-26T23:32:06.762Z,30.43
2017-10-26T23:34:33.222Z,31.50
2017-10-26T23:37:00.311Z,24.80
2017-10-26T23:39:26.748Z,34.63
2017-10-26T23:41:53.074Z,37.10
2017-10-26T23:44:19.548Z,25.00
2017-10-26T23:46:45.991Z,28.70
2017-10-26T23:49:12.432Z,25.63
2017-10-26T23:51:38.891Z,26.63
2017-10-26T23:54:06.046Z,25.90
2017-10-26T23:56:32.569Z,24.93
2017-10-26T23:58:59.012Z,29.87
